VRTM - Saison 11

Position Fahrer Laps Zeit Diff Fahrzeug Status Gesamt Bonuspunkte Strafpunkte
1 Kai Ostwald 19 31:35.601 - BMW M4 DTM 2015 Beendet 40 0 0
2 René Beitz 19 31:39.926 0:04.325 Audi RS 5 DTM 2015 Beendet 35 0 0
3 Stefan Ahlers 19 31:44.813 0:09.212 BMW M4 DTM 2015 Beendet 31 0 0
4 Markus Studer 19 31:52.552 0:16.951 Audi RS 5 DTM 2015 Beendet 28 0 0
5 Jörg Spindler 19 31:56.853 0:21.252 Audi RS 5 DTM 2015 Beendet 21 0 5
6 Franz Mayr 19 32:00.814 0:25.213 BMW M4 DTM 2015 Beendet 24 0 0
7 Nils Herbstrieth 19 32:01.424 0:25.823 BMW M4 DTM 2015 Beendet 22 0 0
8 Marco Grontzki 19 32:20.272 0:44.671 Mercedes-AMG C63 DTM Beendet 20 0 0
9 Thorben Kexel 19 32:21.397 0:45.796 Mercedes-AMG C63 DTM Beendet 13 0 5
10 André G. 19 32:40.692 1:05.091 Mercedes-AMG C63 DTM Beendet 13 0 3
11 Tom Ritter 19 32:44.024 1:08.423 Audi RS 5 DTM 2015 Beendet 14 0 0
12 Roman Holzi 18 32:46.123 -1L Audi RS 5 DTM 2015 Beendet 13 0 0
13 Axel Dorner 19 32:56.863 1:21.262 Audi RS 5 DTM 2015 Beendet 12 0 0
14 Dietmar Scholz 19 33:11.331 1:35.730 BMW M4 DTM 2015 Beendet 11 0 0
15 Stefan Findeklee 18 31:41.264 -1L BMW M4 DTM 2015 Beendet 10 0 0
16 Sirko Sundermann 8 - -11L Audi RS 5 DTM 2015 Beendet -2 0 2
17 Max Ohliger 0 - -19L BMW M4 DTM 2015 Beendet -1 0 1

Rennverlauf

Die schnellsten 5 pro Runde

Runde 1

Pos Rennpos Fahrer Zeit Diff
1 1 Kai Ostwald 1:44.971 -
2 2 René Beitz 1:45.954 0:00.983
3 3 Stefan Ahlers 1:46.899 0:01.928
4 4 Markus Studer 1:47.633 0:02.662
5 5 Franz Mayr 1:48.690 0:03.719

Runde 2

Pos Rennpos Fahrer Zeit Diff
1 1 Kai Ostwald 1:39.557 -
2 6 Jörg Spindler 1:40.833 0:01.276
3 2 Stefan Ahlers 1:40.936 0:01.379
4 4 Markus Studer 1:41.225 0:01.668
5 5 Franz Mayr 1:41.319 0:01.762

Runde 3

Pos Rennpos Fahrer Zeit Diff
1 1 Kai Ostwald 1:39.341 -
2 3 René Beitz 1:40.091 0:00.750
3 2 Stefan Ahlers 1:40.218 0:00.877
4 4 Markus Studer 1:40.266 0:00.925
5 5 Franz Mayr 1:40.577 0:01.236

Runde 4

Pos Rennpos Fahrer Zeit Diff
1 1 Kai Ostwald 1:38.988 -
2 5 Franz Mayr 1:40.224 0:01.236
3 4 Markus Studer 1:40.321 0:01.333
4 2 Stefan Ahlers 1:40.363 0:01.375
5 6 Jörg Spindler 1:40.507 0:01.519

Runde 5

Pos Rennpos Fahrer Zeit Diff
1 1 Kai Ostwald 1:39.022 -
2 3 René Beitz 1:39.572 0:00.550
3 2 Stefan Ahlers 1:39.803 0:00.781
4 5 Franz Mayr 1:40.196 0:01.174
5 6 Jörg Spindler 1:40.239 0:01.217

Runde 6

Pos Rennpos Fahrer Zeit Diff
1 1 Kai Ostwald 1:39.172 -
2 2 René Beitz 1:39.372 0:00.200
3 5 Franz Mayr 1:40.104 0:00.932
4 4 Markus Studer 1:40.131 0:00.959
5 6 Jörg Spindler 1:40.338 0:01.166

Runde 7

Pos Rennpos Fahrer Zeit Diff
1 1 Kai Ostwald 1:38.733 -
2 2 René Beitz 1:38.939 0:00.206
3 4 Markus Studer 1:39.430 0:00.697
4 3 Stefan Ahlers 1:39.460 0:00.727
5 7 Nils Herbstrieth 1:40.476 0:01.743

Runde 8

Pos Rennpos Fahrer Zeit Diff
1 1 Kai Ostwald 1:39.053 -
2 4 Markus Studer 1:39.693 0:00.640
3 3 Stefan Ahlers 1:39.804 0:00.751
4 5 Franz Mayr 1:39.998 0:00.945
5 7 Nils Herbstrieth 1:40.095 0:01.042

Runde 9

Pos Rennpos Fahrer Zeit Diff
1 1 Kai Ostwald 1:39.013 -
2 4 Markus Studer 1:39.119 0:00.106
3 2 René Beitz 1:39.132 0:00.119
4 3 Stefan Ahlers 1:39.342 0:00.329
5 6 Jörg Spindler 1:39.917 0:00.904

Runde 10

Pos Rennpos Fahrer Zeit Diff
1 2 René Beitz 1:38.817 -
2 3 Stefan Ahlers 1:39.067 0:00.250
3 1 Kai Ostwald 1:39.612 0:00.795
4 4 Markus Studer 1:39.654 0:00.837
5 9 Thorben Kexel 1:40.448 0:01.631

Runde 11

Pos Rennpos Fahrer Zeit Diff
1 2 René Beitz 1:38.544 -
2 1 Kai Ostwald 1:39.093 0:00.549
3 7 Nils Herbstrieth 1:39.718 0:01.174
4 3 Stefan Ahlers 1:39.873 0:01.329
5 6 Franz Mayr 1:39.965 0:01.421

Runde 12

Pos Rennpos Fahrer Zeit Diff
1 2 René Beitz 1:39.170 -
2 1 Kai Ostwald 1:39.291 0:00.121
3 3 Stefan Ahlers 1:39.385 0:00.215
4 5 Jörg Spindler 1:39.632 0:00.462
5 9 Thorben Kexel 1:40.424 0:01.254

Runde 13

Pos Rennpos Fahrer Zeit Diff
1 2 René Beitz 1:39.202 -
2 3 Stefan Ahlers 1:39.474 0:00.272
3 1 Kai Ostwald 1:39.524 0:00.322
4 4 Markus Studer 1:39.535 0:00.333
5 6 Franz Mayr 1:40.027 0:00.825

Runde 14

Pos Rennpos Fahrer Zeit Diff
1 2 René Beitz 1:39.025 -
2 1 Kai Ostwald 1:39.424 0:00.399
3 3 Stefan Ahlers 1:39.822 0:00.797
4 7 Nils Herbstrieth 1:39.836 0:00.811
5 9 Thorben Kexel 1:40.016 0:00.991

Runde 15

Pos Rennpos Fahrer Zeit Diff
1 2 René Beitz 1:39.144 -
2 5 Jörg Spindler 1:39.844 0:00.700
3 7 Nils Herbstrieth 1:40.170 0:01.026
4 3 Stefan Ahlers 1:40.269 0:01.125
5 6 Franz Mayr 1:40.295 0:01.151

Runde 16

Pos Rennpos Fahrer Zeit Diff
1 2 René Beitz 1:39.041 -
2 1 Kai Ostwald 1:39.121 0:00.080
3 3 Stefan Ahlers 1:39.395 0:00.354
4 9 Thorben Kexel 1:40.077 0:01.036
5 5 Jörg Spindler 1:40.091 0:01.050

Runde 17

Pos Rennpos Fahrer Zeit Diff
1 1 Kai Ostwald 1:39.474 -
2 2 René Beitz 1:39.575 0:00.101
3 3 Stefan Ahlers 1:40.043 0:00.569
4 4 Markus Studer 1:40.235 0:00.761
5 5 Jörg Spindler 1:40.413 0:00.939

Runde 18

Pos Rennpos Fahrer Zeit Diff
1 2 René Beitz 1:39.374 -
2 3 Stefan Ahlers 1:39.923 0:00.549
3 1 Kai Ostwald 1:40.122 0:00.748
4 5 Jörg Spindler 1:40.370 0:00.996
5 7 Nils Herbstrieth 1:40.810 0:01.436

Runde 19

Pos Rennpos Fahrer Zeit Diff
1 3 Stefan Ahlers 1:40.220 -
2 4 Markus Studer 1:40.364 0:00.144
3 9 Thorben Kexel 1:40.399 0:00.179
4 6 Franz Mayr 1:40.870 0:00.650
5 5 Jörg Spindler 1:40.933 0:00.713

SERVER

0/24
VRL Gentlemen Drivers Cup (GDC) Trainingsserver
TrainingDaytona International Speedway - Road Course
0/103
virtualracing.org #1 GTMG1
TrainingSpa-Francorchamps
0/103
virtualracing.org #2 FNS
TrainingAtlanta Motor Speedway
0/103
virtualracing.org #3 FS
TrainingOschersleben Motorsport Park
0/103
virtualracing.org #4 LSM
TrainingLe Mans 24h
0/45
virtualracing.org #5 F1S
TrainingFormelDLM, 07. Spanien - Barcelona GP
0/45
virtualracing.org #6 TWS
TrainingVirtual Racing, VRTWS, 06. Suedafrika-Kyalami
0/103
virtualracing.org P5 ES
TrainingSilverstone
0/32
virtualracing.org#11 FAC VIP Training
TrainingAutódromo Internacional do Algarve - GP
0/60
virtualracing.org#12 VRLN VR1 VR4H Training
TrainingNordschleife - VLN
0/70
virtualracing.org#13 VRLN VR3T Training
TrainingNordschleife - VLN
0/58
virtualracing.org#14 VRLN VR2GT VR5C Training
TrainingNordschleife - VLN
0/45
virtualracing.org#16 VRLNIV Lauf 3 Qualifikation Grid 2
TrainingNordschleife - VLN Qualifikation
0/60
virtualracing.org#17 VRLNIV Lauf 3 Qualifikation Grid 1
TrainingNordschleife - VLN Qualifikation
0/30
virtualracing.org#23 VRCO Training 1
TrainingAutódromo José Carlos Pace - Grand Prix
0/16
virtualracing.org#28 VR240 Test und Einstellfahrt
unbekanntAspertsham - Hargassen
0/24
virtualracing.org#30 ALT Training
TrainingKyalami - Grand Prix Circuit 1961-87